createdAt,value
2018-06-13T00:00:11.992Z,17.30
2018-06-13T00:01:15.045Z,17.30
2018-06-13T00:02:18.109Z,17.30
2018-06-13T00:03:21.243Z,17.30
2018-06-13T00:04:24.451Z,17.30
2018-06-13T00:05:27.560Z,17.30
2018-06-13T00:06:30.586Z,17.30
2018-06-13T00:07:33.624Z,17.30
2018-06-13T00:08:36.643Z,17.30
2018-06-13T00:09:39.662Z,17.30
2018-06-13T00:10:42.710Z,17.20
2018-06-13T00:11:45.747Z,17.20
2018-06-13T00:12:48.784Z,17.20
2018-06-13T00:13:51.830Z,17.20
2018-06-13T00:14:54.853Z,17.20
2018-06-13T00:15:57.917Z,17.20
2018-06-13T00:17:00.963Z,17.20
2018-06-13T00:18:04.020Z,17.20
2018-06-13T00:19:07.054Z,17.20
2018-06-13T00:20:10.576Z,17.20
2018-06-13T00:21:13.629Z,17.20
2018-06-13T00:22:16.656Z,17.20
2018-06-13T00:23:20.337Z,17.20
2018-06-13T00:24:23.838Z,17.20
2018-06-13T00:25:26.865Z,17.20
2018-06-13T00:26:29.899Z,17.20
2018-06-13T00:27:32.924Z,17.20
2018-06-13T00:28:35.921Z,17.20
2018-06-13T00:29:38.976Z,17.20
2018-06-13T00:30:42.008Z,17.20
2018-06-13T00:31:45.056Z,17.20
2018-06-13T00:32:48.492Z,17.20
2018-06-13T00:33:51.655Z,17.30
2018-06-13T00:34:54.718Z,17.20
2018-06-13T00:35:57.804Z,17.20
2018-06-13T00:37:01.003Z,17.10
2018-06-13T00:38:04.071Z,17.10
2018-06-13T00:39:07.242Z,17.10
2018-06-13T00:40:10.292Z,17.10
2018-06-13T00:41:13.360Z,17.10
2018-06-13T00:42:16.406Z,17.10
2018-06-13T00:43:20.527Z,17.10
2018-06-13T00:44:23.880Z,17.00
2018-06-13T00:45:26.888Z,17.00
2018-06-13T00:46:29.970Z,17.00
2018-06-13T00:47:33.018Z,17.00
2018-06-13T00:48:36.047Z,17.00
2018-06-13T00:49:39.085Z,17.00
2018-06-13T00:50:42.115Z,17.00
2018-06-13T00:51:45.150Z,17.10
2018-06-13T00:52:48.154Z,17.10
2018-06-13T00:53:51.698Z,17.10
2018-06-13T00:54:54.750Z,17.10
2018-06-13T00:56:09.289Z,17.10
2018-06-13T00:57:12.821Z,17.10
2018-06-13T00:58:15.837Z,17.10
2018-06-13T00:59:18.874Z,17.10
2018-06-13T01:00:21.953Z,17.10
2018-06-13T01:01:25.004Z,17.10
2018-06-13T01:02:28.095Z,17.10
2018-06-13T01:03:31.287Z,17.10
2018-06-13T01:04:34.360Z,17.10
2018-06-13T01:05:37.427Z,17.10
2018-06-13T01:06:40.472Z,17.10
2018-06-13T01:07:43.489Z,17.10
2018-06-13T01:08:46.898Z,17.10
2018-06-13T01:09:49.948Z,17.10
2018-06-13T01:10:53.221Z,17.20
2018-06-13T01:11:56.285Z,17.10
2018-06-13T01:12:59.295Z,17.10
2018-06-13T01:14:02.333Z,17.10
2018-06-13T01:15:05.423Z,17.10
2018-06-13T01:16:08.459Z,17.10
2018-06-13T01:17:11.533Z,17.10
2018-06-13T01:18:14.557Z,17.10
2018-06-13T01:19:17.663Z,17.10
2018-06-13T01:20:20.712Z,17.10
2018-06-13T01:21:23.759Z,17.10
2018-06-13T01:22:26.865Z,17.10
2018-06-13T01:23:30.135Z,17.10
2018-06-13T01:24:33.171Z,17.10
2018-06-13T01:25:36.220Z,17.10
2018-06-13T01:26:39.264Z,17.10
2018-06-13T01:27:42.305Z,17.10
2018-06-13T01:28:45.350Z,17.10
2018-06-13T01:29:48.382Z,17.10
2018-06-13T01:30:51.479Z,17.10
2018-06-13T01:31:54.497Z,17.10
2018-06-13T01:32:57.493Z,17.10
2018-06-13T01:34:00.542Z,17.10
2018-06-13T01:35:03.582Z,17.10
2018-06-13T01:36:06.610Z,17.10
2018-06-13T01:37:09.646Z,17.10
2018-06-13T01:38:12.680Z,17.10
2018-06-13T01:39:15.712Z,17.10
2018-06-13T01:40:18.784Z,17.00
2018-06-13T01:41:21.811Z,17.00
2018-06-13T01:42:24.840Z,17.00
2018-06-13T01:43:27.867Z,17.00
2018-06-13T01:44:31.167Z,17.00
2018-06-13T01:45:34.213Z,17.00
2018-06-13T01:46:37.308Z,16.90
2018-06-13T01:47:40.371Z,16.90
2018-06-13T01:48:43.420Z,16.90
2018-06-13T01:49:46.465Z,16.90
2018-06-13T01:50:55.863Z,16.90
2018-06-13T01:51:58.944Z,16.90
2018-06-13T01:53:01.983Z,16.80
2018-06-13T01:54:04.991Z,16.80
2018-06-13T01:55:08.111Z,16.80
2018-06-13T01:56:11.140Z,16.80
2018-06-13T01:57:14.213Z,16.70
2018-06-13T01:58:17.243Z,16.70
2018-06-13T01:59:20.279Z,16.70
2018-06-13T02:00:23.312Z,16.70
2018-06-13T02:01:26.339Z,16.70
2018-06-13T02:02:29.403Z,16.70
2018-06-13T02:03:32.408Z,16.70
2018-06-13T02:04:35.497Z,16.70
2018-06-13T02:05:38.526Z,16.70
2018-06-13T02:06:41.554Z,16.60
2018-06-13T02:07:45.124Z,16.60
2018-06-13T02:08:48.189Z,16.60
2018-06-13T02:09:51.258Z,16.60
2018-06-13T02:10:54.276Z,16.50
2018-06-13T02:11:57.308Z,16.60
2018-06-13T02:13:00.373Z,16.50
2018-06-13T02:14:03.509Z,16.50
2018-06-13T02:15:06.599Z,16.60
2018-06-13T02:16:09.648Z,16.50
2018-06-13T02:17:12.707Z,16.50
2018-06-13T02:18:15.786Z,16.50
2018-06-13T02:19:18.868Z,16.50
2018-06-13T02:20:21.912Z,16.50
2018-06-13T02:21:24.958Z,16.50
2018-06-13T02:22:28.010Z,16.40
2018-06-13T02:23:31.039Z,16.40
2018-06-13T02:24:34.180Z,16.40
2018-06-13T02:25:37.212Z,16.40
2018-06-13T02:26:40.228Z,16.30
2018-06-13T02:27:43.400Z,16.30
2018-06-13T02:28:46.425Z,16.30
2018-06-13T02:29:49.499Z,16.30
2018-06-13T02:30:52.509Z,16.30
2018-06-13T02:31:55.528Z,16.30
2018-06-13T02:32:58.569Z,16.30
2018-06-13T02:34:01.609Z,16.30
2018-06-13T02:35:04.659Z,16.40
2018-06-13T02:36:07.714Z,16.40
2018-06-13T02:37:10.732Z,16.30
2018-06-13T02:38:13.763Z,16.30
2018-06-13T02:39:16.830Z,16.20
2018-06-13T02:40:19.990Z,16.30
2018-06-13T02:41:23.014Z,16.20
2018-06-13T02:42:26.030Z,16.20
2018-06-13T02:43:29.063Z,16.30
2018-06-13T02:44:32.919Z,16.30
2018-06-13T02:45:35.963Z,16.20
2018-06-13T02:46:39.025Z,16.30
2018-06-13T02:47:42.043Z,16.20
2018-06-13T02:48:45.072Z,16.20
2018-06-13T02:49:48.184Z,16.20
2018-06-13T02:50:51.232Z,16.20
2018-06-13T02:51:54.230Z,16.30
2018-06-13T02:52:57.252Z,16.30
2018-06-13T02:54:00.307Z,16.30
2018-06-13T02:55:03.376Z,16.30
2018-06-13T02:56:06.474Z,16.20
2018-06-13T02:57:09.492Z,16.20
2018-06-13T02:58:12.508Z,16.20
2018-06-13T02:59:15.556Z,16.20
2018-06-13T03:00:18.583Z,16.20
2018-06-13T03:01:21.670Z,16.20
2018-06-13T03:02:24.712Z,16.20
2018-06-13T03:03:27.747Z,16.10
2018-06-13T03:04:30.791Z,16.20
2018-06-13T03:05:33.828Z,16.10
2018-06-13T03:06:36.843Z,16.10
2018-06-13T03:07:39.887Z,16.10
2018-06-13T03:08:42.944Z,16.10
2018-06-13T03:09:46.025Z,16.10
2018-06-13T03:10:49.097Z,16.20
2018-06-13T03:11:52.146Z,16.20
2018-06-13T03:12:55.177Z,16.10
2018-06-13T03:13:58.281Z,16.10
2018-06-13T03:15:01.309Z,16.20
2018-06-13T03:16:04.363Z,16.20
2018-06-13T03:17:07.420Z,16.10
2018-06-13T03:18:10.485Z,16.20
2018-06-13T03:19:13.502Z,16.20
2018-06-13T03:20:16.542Z,16.10
2018-06-13T03:21:19.603Z,16.10
2018-06-13T03:22:22.643Z,16.20
2018-06-13T03:23:25.695Z,16.10
2018-06-13T03:24:29.615Z,16.10
2018-06-13T03:25:32.697Z,16.10
2018-06-13T03:26:36.008Z,16.10
2018-06-13T03:27:39.027Z,16.20
2018-06-13T03:28:42.560Z,16.10
2018-06-13T03:29:45.853Z,16.20
2018-06-13T03:30:49.496Z,16.20
2018-06-13T03:31:52.635Z,16.20
2018-06-13T03:32:55.768Z,16.20
2018-06-13T03:33:58.865Z,16.20
2018-06-13T03:35:01.977Z,16.20
2018-06-13T03:36:05.310Z,16.10
2018-06-13T03:37:08.370Z,16.10
2018-06-13T03:38:11.413Z,16.10
2018-06-13T03:39:14.448Z,16.10
2018-06-13T03:40:17.489Z,16.10
2018-06-13T03:41:20.514Z,16.00
2018-06-13T03:42:23.555Z,16.10
2018-06-13T03:43:26.599Z,16.10
2018-06-13T03:44:29.856Z,16.00
2018-06-13T03:45:32.884Z,16.00
2018-06-13T03:46:36.108Z,16.10
2018-06-13T03:47:39.175Z,16.00
2018-06-13T03:48:42.204Z,16.00
2018-06-13T03:49:45.231Z,16.00
2018-06-13T03:50:48.270Z,16.10
2018-06-13T03:51:51.350Z,16.10
2018-06-13T03:52:54.381Z,16.00
2018-06-13T03:53:58.411Z,16.00
2018-06-13T03:55:01.443Z,16.10
2018-06-13T03:56:04.515Z,16.10
2018-06-13T03:57:07.555Z,16.10
2018-06-13T03:58:10.575Z,16.10
2018-06-13T03:59:13.612Z,16.10
2018-06-13T04:00:16.679Z,16.00
2018-06-13T04:01:19.680Z,16.00
2018-06-13T04:02:22.772Z,16.00
2018-06-13T04:03:25.776Z,16.00
2018-06-13T04:04:28.788Z,16.00
2018-06-13T04:05:31.837Z,16.00
2018-06-13T04:06:34.848Z,16.00
2018-06-13T04:07:37.886Z,16.00
2018-06-13T04:08:40.944Z,16.00
2018-06-13T04:09:44.020Z,16.00
2018-06-13T04:10:47.065Z,16.10
2018-06-13T04:11:50.039Z,16.00
2018-06-13T04:12:53.120Z,16.00
2018-06-13T04:13:56.181Z,16.00
2018-06-13T04:14:59.152Z,16.00
2018-06-13T04:16:02.125Z,16.00
2018-06-13T04:17:05.287Z,16.00
2018-06-13T04:18:08.304Z,15.90
2018-06-13T04:19:11.306Z,16.00
2018-06-13T04:20:14.303Z,16.00
2018-06-13T04:21:17.339Z,16.00
2018-06-13T04:22:20.366Z,16.00
2018-06-13T04:23:23.343Z,16.00
2018-06-13T04:24:26.898Z,16.00
2018-06-13T04:25:29.919Z,16.00
2018-06-13T04:26:32.967Z,16.00
2018-06-13T04:27:36.033Z,16.00
2018-06-13T04:28:39.252Z,16.00
2018-06-13T04:29:42.368Z,15.90
2018-06-13T04:30:52.148Z,15.90
2018-06-13T04:31:55.152Z,15.90
2018-06-13T04:32:58.173Z,15.90
2018-06-13T04:34:01.190Z,15.90
2018-06-13T04:35:04.242Z,16.00
2018-06-13T04:36:07.256Z,15.90
2018-06-13T04:37:10.251Z,15.90
2018-06-13T04:38:13.243Z,16.00
2018-06-13T04:39:16.267Z,16.00
2018-06-13T04:40:19.259Z,16.00
2018-06-13T04:41:22.253Z,16.00
2018-06-13T04:42:25.244Z,16.00
2018-06-13T04:43:28.236Z,16.00
2018-06-13T04:44:31.304Z,16.10
2018-06-13T04:45:34.334Z,16.10
2018-06-13T04:46:37.443Z,16.20
2018-06-13T04:47:40.415Z,16.20
2018-06-13T04:48:43.476Z,16.20
2018-06-13T04:49:46.636Z,16.20
2018-06-13T04:50:49.679Z,16.30
2018-06-13T04:51:52.710Z,16.30
2018-06-13T04:52:55.704Z,16.30
2018-06-13T04:53:58.747Z,16.30
2018-06-13T04:55:01.712Z,16.30
2018-06-13T04:56:04.867Z,16.30
2018-06-13T04:57:07.865Z,16.30
2018-06-13T04:58:10.981Z,16.30
2018-06-13T04:59:14.008Z,16.30
2018-06-13T05:00:17.036Z,16.30
2018-06-13T05:01:20.069Z,16.30
2018-06-13T05:02:23.212Z,16.30
2018-06-13T05:03:26.277Z,16.40
2018-06-13T05:04:29.268Z,16.40
2018-06-13T05:05:32.281Z,16.40
2018-06-13T05:06:35.289Z,16.40
2018-06-13T05:07:38.297Z,16.30
2018-06-13T05:08:41.329Z,16.30
2018-06-13T05:09:44.307Z,16.40
2018-06-13T05:10:47.314Z,16.40
2018-06-13T05:11:50.304Z,16.40
2018-06-13T05:12:53.342Z,16.40
2018-06-13T05:13:56.356Z,16.40
2018-06-13T05:14:59.343Z,16.40
2018-06-13T05:16:02.380Z,16.40
2018-06-13T05:17:05.391Z,16.40
2018-06-13T05:18:08.379Z,16.40
2018-06-13T05:19:11.444Z,16.40
2018-06-13T05:20:14.452Z,16.40
2018-06-13T05:21:17.447Z,16.40
2018-06-13T05:22:20.427Z,16.50
2018-06-13T05:23:23.433Z,16.50
2018-06-13T05:24:26.445Z,16.50
2018-06-13T05:25:29.459Z,16.50
2018-06-13T05:26:32.473Z,16.50
2018-06-13T05:27:35.546Z,16.50
2018-06-13T05:28:38.534Z,16.50
2018-06-13T05:29:41.558Z,16.50
2018-06-13T05:30:44.544Z,16.50
2018-06-13T05:31:47.536Z,16.50
2018-06-13T05:32:50.525Z,16.50
2018-06-13T05:33:53.705Z,16.50
2018-06-13T05:34:56.772Z,16.50
2018-06-13T05:35:59.792Z,16.60
2018-06-13T05:37:02.780Z,16.60
2018-06-13T05:38:05.791Z,16.70
2018-06-13T05:39:08.828Z,16.60
2018-06-13T05:40:11.876Z,16.70
2018-06-13T05:41:14.871Z,16.70
2018-06-13T05:42:17.836Z,16.70
2018-06-13T05:43:20.823Z,16.60
2018-06-13T05:44:23.822Z,16.60
2018-06-13T05:45:26.822Z,16.60
2018-06-13T05:46:29.830Z,16.60
2018-06-13T05:47:32.833Z,16.60
2018-06-13T05:48:35.828Z,16.60
2018-06-13T05:49:38.832Z,16.60
2018-06-13T05:50:41.856Z,16.60
2018-06-13T05:51:44.853Z,16.70
2018-06-13T05:52:47.877Z,16.70
2018-06-13T05:53:50.875Z,16.70
2018-06-13T05:54:53.865Z,16.70
2018-06-13T05:55:56.884Z,16.60
2018-06-13T05:57:00.075Z,16.50
2018-06-13T05:58:03.092Z,16.50
2018-06-13T05:59:06.183Z,16.50
2018-06-13T06:00:09.172Z,16.50
2018-06-13T06:01:12.196Z,16.40
2018-06-13T06:02:15.189Z,16.40
2018-06-13T06:03:18.213Z,16.40
2018-06-13T06:04:21.263Z,16.40
2018-06-13T06:05:24.268Z,16.40
2018-06-13T06:06:27.288Z,16.40
2018-06-13T06:07:30.275Z,16.40
2018-06-13T06:08:33.340Z,16.50
2018-06-13T06:09:36.348Z,16.50
2018-06-13T06:10:39.571Z,16.40
2018-06-13T06:11:42.591Z,16.40
2018-06-13T06:12:45.618Z,16.40
2018-06-13T06:13:48.669Z,16.40
2018-06-13T06:14:51.671Z,16.40
2018-06-13T06:15:54.737Z,16.40
2018-06-13T06:16:57.796Z,16.40
2018-06-13T06:18:00.878Z,16.50
2018-06-13T06:19:04.165Z,16.50
2018-06-13T06:20:07.599Z,16.60
2018-06-13T06:21:10.605Z,16.60
2018-06-13T06:22:13.660Z,16.70
2018-06-13T06:23:16.815Z,16.60
2018-06-13T06:24:19.848Z,16.60
2018-06-13T06:25:22.873Z,16.60
2018-06-13T06:26:27.226Z,16.50
2018-06-13T06:27:30.549Z,16.50
2018-06-13T06:28:33.631Z,16.50
2018-06-13T06:29:36.702Z,16.50
2018-06-13T06:30:39.749Z,16.50
2018-06-13T06:31:42.783Z,16.50
2018-06-13T06:32:45.913Z,16.50
2018-06-13T06:33:49.131Z,16.40
2018-06-13T06:34:52.156Z,16.40
2018-06-13T06:35:55.174Z,16.40
2018-06-13T06:36:58.372Z,16.40
2018-06-13T06:38:01.429Z,16.40
2018-06-13T06:39:07.168Z,16.40
2018-06-13T06:40:10.289Z,16.40
2018-06-13T06:41:13.307Z,16.40
2018-06-13T06:42:16.428Z,16.40
2018-06-13T06:43:19.449Z,16.40
2018-06-13T06:44:22.512Z,16.30
2018-06-13T06:45:25.592Z,16.30
2018-06-13T06:46:28.669Z,16.30
2018-06-13T06:47:31.756Z,16.30
2018-06-13T06:48:34.858Z,16.30
2018-06-13T06:49:37.967Z,16.30
2018-06-13T06:50:40.959Z,16.30
2018-06-13T06:51:44.027Z,16.30
2018-06-13T06:52:47.049Z,16.30
2018-06-13T06:53:50.070Z,16.30
2018-06-13T06:54:53.139Z,16.20
2018-06-13T06:55:56.127Z,16.30
2018-06-13T06:56:59.208Z,16.20
2018-06-13T06:58:02.256Z,16.30
2018-06-13T06:59:05.321Z,16.30
2018-06-13T07:00:08.391Z,16.30
2018-06-13T07:01:11.396Z,16.30
2018-06-13T07:02:14.448Z,16.30
2018-06-13T07:03:17.491Z,16.30
2018-06-13T07:04:20.489Z,16.30
2018-06-13T07:05:23.519Z,16.30
2018-06-13T07:06:26.543Z,16.40
2018-06-13T07:07:29.630Z,16.40
2018-06-13T07:08:32.766Z,16.50
2018-06-13T07:09:35.814Z,16.50
2018-06-13T07:10:38.904Z,16.50
2018-06-13T07:11:41.929Z,16.60
2018-06-13T07:12:44.983Z,16.60
2018-06-13T07:13:47.992Z,16.60
2018-06-13T07:14:51.024Z,16.60
2018-06-13T07:15:54.115Z,16.60
2018-06-13T07:16:57.131Z,16.70
2018-06-13T07:18:00.684Z,16.80
2018-06-13T07:19:03.858Z,16.70
2018-06-13T07:20:06.836Z,16.80
2018-06-13T07:21:09.901Z,16.80
2018-06-13T07:22:12.929Z,16.80
2018-06-13T07:23:15.975Z,16.80
2018-06-13T07:24:19.044Z,16.80
2018-06-13T07:25:22.104Z,16.90
2018-06-13T07:26:25.107Z,17.00
2018-06-13T07:27:28.160Z,17.10
2018-06-13T07:28:31.185Z,17.20
2018-06-13T07:29:34.206Z,17.30
2018-06-13T07:30:37.260Z,17.30
2018-06-13T07:31:40.323Z,17.40
2018-06-13T07:32:43.404Z,17.40
2018-06-13T07:33:46.472Z,17.40
2018-06-13T07:34:49.494Z,17.40
2018-06-13T07:35:52.531Z,17.50
2018-06-13T07:36:55.541Z,17.50
2018-06-13T07:37:58.536Z,17.60
2018-06-13T07:39:01.568Z,17.60
2018-06-13T07:40:04.590Z,17.60
2018-06-13T07:41:07.601Z,17.70
2018-06-13T07:42:10.686Z,17.60
2018-06-13T07:43:13.703Z,17.70
2018-06-13T07:44:16.736Z,17.60
2018-06-13T07:45:19.780Z,17.60
2018-06-13T07:46:22.841Z,17.60
2018-06-13T07:47:25.843Z,17.60
2018-06-13T07:48:28.955Z,17.70
2018-06-13T07:49:31.971Z,17.70
2018-06-13T07:50:35.072Z,17.70
2018-06-13T07:51:38.134Z,17.70
2018-06-13T07:52:41.125Z,17.80
2018-06-13T07:53:44.165Z,17.80
2018-06-13T07:54:47.129Z,17.90
2018-06-13T07:55:50.136Z,17.80
2018-06-13T07:56:53.182Z,17.80
2018-06-13T07:57:56.176Z,17.90
2018-06-13T07:58:59.188Z,17.90
2018-06-13T08:00:02.206Z,17.90
2018-06-13T08:01:05.220Z,17.90
2018-06-13T08:02:08.241Z,18.00
2018-06-13T08:03:11.646Z,18.00
2018-06-13T08:04:14.760Z,17.90
2018-06-13T08:05:17.793Z,17.90
2018-06-13T08:06:20.820Z,18.00
2018-06-13T08:07:23.836Z,18.10
2018-06-13T08:08:26.876Z,18.20
2018-06-13T08:09:29.876Z,18.30
2018-06-13T08:10:32.935Z,18.20
2018-06-13T08:11:36.049Z,18.30
2018-06-13T08:12:39.096Z,18.40
2018-06-13T08:13:42.077Z,18.50
2018-06-13T08:14:45.072Z,18.50
2018-06-13T08:15:48.099Z,18.50
2018-06-13T08:16:51.147Z,18.60
2018-06-13T08:17:54.176Z,18.60
2018-06-13T08:18:57.198Z,18.60
2018-06-13T08:20:00.278Z,18.60
2018-06-13T08:21:03.297Z,18.60
2018-06-13T08:22:06.315Z,18.70
2018-06-13T08:23:09.341Z,19.00
2018-06-13T08:24:12.381Z,19.30
2018-06-13T08:25:15.467Z,19.60
2018-06-13T08:26:18.529Z,20.00
2018-06-13T08:27:21.543Z,20.50
2018-06-13T08:28:24.630Z,20.80
2018-06-13T08:29:27.650Z,21.30
2018-06-13T08:30:30.681Z,21.60
2018-06-13T08:31:33.694Z,21.90
2018-06-13T08:32:36.679Z,22.00
2018-06-13T08:33:39.772Z,22.00
2018-06-13T08:34:42.763Z,22.10
2018-06-13T08:35:45.739Z,22.30
2018-06-13T08:36:48.711Z,22.40
2018-06-13T08:37:51.786Z,22.60
2018-06-13T08:38:54.904Z,22.60
2018-06-13T08:39:57.943Z,22.50
2018-06-13T08:41:00.935Z,22.40
2018-06-13T08:42:04.006Z,22.20
2018-06-13T08:43:07.055Z,21.80
2018-06-13T08:44:10.067Z,21.40
2018-06-13T08:45:13.085Z,21.10
2018-06-13T08:46:16.109Z,20.80
2018-06-13T08:47:19.156Z,20.40
2018-06-13T08:48:22.170Z,20.00
2018-06-13T08:49:25.212Z,19.90
2018-06-13T08:50:28.219Z,19.70
2018-06-13T08:51:31.247Z,19.50
2018-06-13T08:52:34.236Z,19.40
2018-06-13T08:53:37.265Z,19.30
2018-06-13T08:54:40.247Z,19.20
2018-06-13T08:55:43.295Z,19.10
2018-06-13T08:56:46.352Z,19.10
2018-06-13T08:57:49.373Z,19.20
2018-06-13T08:58:52.472Z,19.50
2018-06-13T08:59:55.480Z,19.80
2018-06-13T09:00:58.552Z,20.20
2018-06-13T09:02:01.600Z,20.50
2018-06-13T09:03:04.671Z,20.80
2018-06-13T09:04:07.701Z,20.80
2018-06-13T09:05:10.740Z,20.70
2018-06-13T09:06:13.778Z,20.70
2018-06-13T09:07:16.775Z,20.60
2018-06-13T09:08:19.803Z,20.60
2018-06-13T09:09:22.848Z,20.60
2018-06-13T09:10:25.903Z,20.70
2018-06-13T09:11:28.967Z,20.80
2018-06-13T09:12:31.996Z,20.90
2018-06-13T09:13:35.015Z,21.10
2018-06-13T09:14:38.074Z,21.10
2018-06-13T09:15:41.091Z,20.90
2018-06-13T09:16:44.133Z,20.80
2018-06-13T09:17:47.158Z,20.60
2018-06-13T09:18:50.204Z,20.60
2018-06-13T09:19:53.189Z,20.40
2018-06-13T09:20:56.200Z,20.30
2018-06-13T09:21:59.221Z,20.10
2018-06-13T09:23:02.245Z,20.00
2018-06-13T09:24:05.256Z,19.80
2018-06-13T09:25:08.272Z,19.50
2018-06-13T09:26:11.292Z,19.30
2018-06-13T09:27:14.383Z,19.20
2018-06-13T09:28:17.412Z,19.10
2018-06-13T09:29:20.477Z,19.10
2018-06-13T09:30:23.487Z,18.90
2018-06-13T09:31:26.487Z,18.80
2018-06-13T09:32:29.516Z,18.70
2018-06-13T09:33:32.841Z,18.70
2018-06-13T09:34:36.073Z,18.60
2018-06-13T09:35:39.185Z,18.60
2018-06-13T09:36:42.393Z,18.60
2018-06-13T09:37:45.524Z,18.60
2018-06-13T09:38:48.524Z,18.80
2018-06-13T09:39:51.517Z,18.80
2018-06-13T09:40:54.539Z,18.90
2018-06-13T09:42:02.449Z,19.00
2018-06-13T09:43:05.605Z,19.00
2018-06-13T09:44:08.675Z,19.10
2018-06-13T09:45:11.874Z,19.20
2018-06-13T09:46:15.131Z,19.30
2018-06-13T09:47:23.458Z,19.40
2018-06-13T09:48:21.412Z,19.60
2018-06-13T09:49:24.428Z,19.60
2018-06-13T09:50:27.460Z,19.60
2018-06-13T09:51:30.532Z,19.70
2018-06-13T09:52:33.559Z,19.70
2018-06-13T09:53:36.562Z,19.70
2018-06-13T09:54:39.585Z,19.70
2018-06-13T09:55:42.663Z,19.80
2018-06-13T09:56:45.949Z,19.80
2018-06-13T09:57:49.508Z,19.80
2018-06-13T09:58:57.994Z,19.80
2018-06-13T10:00:06.500Z,19.90
2018-06-13T10:01:13.806Z,20.00
2018-06-13T10:02:17.098Z,19.90
2018-06-13T10:03:20.141Z,19.90
2018-06-13T10:04:23.163Z,20.00
2018-06-13T10:05:26.196Z,20.00
2018-06-13T10:06:29.221Z,20.00
2018-06-13T10:07:32.287Z,20.00
2018-06-13T10:08:35.321Z,19.80
2018-06-13T10:09:38.340Z,19.80
2018-06-13T10:10:41.354Z,19.60
2018-06-13T10:11:44.401Z,19.50
2018-06-13T10:12:47.384Z,19.50
2018-06-13T10:13:50.448Z,19.40
2018-06-13T10:14:53.457Z,19.30
2018-06-13T10:15:56.465Z,19.20
2018-06-13T10:16:59.491Z,19.10
2018-06-13T10:18:02.522Z,19.00
2018-06-13T10:19:05.629Z,18.90
2018-06-13T10:20:08.831Z,18.90
2018-06-13T10:21:11.876Z,18.70
2018-06-13T10:22:14.946Z,18.70
2018-06-13T10:23:17.918Z,18.60
2018-06-13T10:24:20.952Z,18.50
2018-06-13T10:25:24.015Z,18.30
2018-06-13T10:26:26.980Z,18.30
2018-06-13T10:27:35.364Z,18.30
2018-06-13T10:28:38.364Z,18.20
2018-06-13T10:29:41.412Z,18.10
2018-06-13T10:30:44.489Z,18.20
2018-06-13T10:31:47.498Z,18.20
2018-06-13T10:32:50.476Z,18.10
2018-06-13T10:33:53.481Z,18.10
2018-06-13T10:34:56.542Z,18.10
2018-06-13T10:35:59.572Z,18.20
2018-06-13T10:37:02.600Z,18.20
2018-06-13T10:38:05.629Z,18.20
2018-06-13T10:39:08.699Z,18.20
2018-06-13T10:40:11.772Z,18.30
2018-06-13T10:41:14.773Z,18.40
2018-06-13T10:42:17.830Z,18.50
2018-06-13T10:43:20.839Z,18.60
2018-06-13T10:44:23.908Z,18.70
2018-06-13T10:45:27.012Z,18.70
2018-06-13T10:46:30.096Z,18.80
2018-06-13T10:47:33.120Z,18.90
2018-06-13T10:48:36.145Z,18.90
2018-06-13T10:49:39.179Z,19.00
2018-06-13T10:50:42.208Z,19.00
2018-06-13T10:51:45.246Z,19.10
2018-06-13T10:52:48.362Z,19.20
2018-06-13T10:53:51.342Z,19.20
2018-06-13T10:54:54.369Z,19.20
2018-06-13T10:55:57.391Z,19.20
2018-06-13T10:57:00.419Z,19.30
2018-06-13T10:58:03.464Z,19.30
2018-06-13T10:59:06.480Z,19.40
2018-06-13T11:00:09.592Z,19.20
2018-06-13T11:01:12.588Z,19.30
2018-06-13T11:02:15.604Z,19.40
2018-06-13T11:03:18.674Z,19.50
2018-06-13T11:04:21.695Z,19.60
2018-06-13T11:05:24.818Z,19.70
2018-06-13T11:06:27.924Z,19.70
2018-06-13T11:07:30.945Z,19.80
2018-06-13T11:08:33.955Z,19.70
2018-06-13T11:09:36.975Z,19.70
2018-06-13T11:10:39.991Z,19.60
2018-06-13T11:11:43.077Z,19.60
2018-06-13T11:12:46.091Z,19.60
2018-06-13T11:13:49.150Z,19.60
2018-06-13T11:14:52.160Z,19.60
2018-06-13T11:15:55.183Z,19.60
2018-06-13T11:16:58.228Z,19.60
2018-06-13T11:18:01.260Z,19.70
2018-06-13T11:19:04.267Z,19.70
2018-06-13T11:20:07.272Z,19.80
2018-06-13T11:21:10.270Z,19.90
2018-06-13T11:22:13.274Z,20.00
2018-06-13T11:23:16.281Z,20.00
2018-06-13T11:24:19.303Z,20.00
2018-06-13T11:25:22.458Z,20.10
2018-06-13T11:26:25.454Z,20.10
2018-06-13T11:27:28.469Z,20.00
2018-06-13T11:28:31.639Z,20.00
2018-06-13T11:29:34.667Z,20.00
2018-06-13T11:30:37.656Z,20.00
2018-06-13T11:31:40.653Z,19.90
2018-06-13T11:32:43.684Z,19.80
2018-06-13T11:33:46.698Z,19.90
2018-06-13T11:34:54.123Z,19.70
2018-06-13T11:35:57.139Z,19.60
2018-06-13T11:37:00.157Z,19.40
2018-06-13T11:38:03.152Z,19.20
2018-06-13T11:39:08.191Z,19.00
2018-06-13T11:40:11.213Z,19.00
2018-06-13T11:41:14.226Z,18.90
2018-06-13T11:42:17.219Z,18.90
2018-06-13T11:43:20.264Z,18.80
2018-06-13T11:44:23.314Z,18.80
2018-06-13T11:45:26.303Z,18.70
2018-06-13T11:46:29.331Z,18.80
2018-06-13T11:47:32.338Z,18.80
2018-06-13T11:48:35.339Z,18.80
2018-06-13T11:49:38.369Z,18.80
2018-06-13T11:50:41.354Z,18.70
2018-06-13T11:51:44.345Z,18.70
2018-06-13T11:52:47.331Z,18.70
2018-06-13T11:53:50.297Z,18.60
2018-06-13T11:54:53.352Z,18.60
2018-06-13T11:55:56.396Z,18.40
2018-06-13T11:56:59.493Z,18.40
2018-06-13T11:58:02.556Z,18.40
2018-06-13T11:59:05.877Z,18.40
2018-06-13T12:00:08.969Z,18.40
2018-06-13T12:01:12.087Z,18.30
2018-06-13T12:02:15.345Z,18.30
2018-06-13T12:03:18.435Z,18.30
2018-06-13T12:04:28.055Z,18.20
2018-06-13T12:05:31.109Z,18.20
2018-06-13T12:06:34.097Z,18.10
2018-06-13T12:07:37.155Z,18.10
2018-06-13T12:08:40.229Z,18.10
2018-06-13T12:09:43.299Z,18.10
2018-06-13T12:10:46.392Z,18.10
2018-06-13T12:11:49.512Z,18.20
2018-06-13T12:12:52.523Z,18.20
2018-06-13T12:13:55.517Z,18.20
2018-06-13T12:14:58.540Z,18.00
2018-06-13T12:16:01.576Z,18.00
2018-06-13T12:17:04.656Z,18.00
2018-06-13T12:18:07.737Z,18.00
2018-06-13T12:19:10.739Z,17.90
2018-06-13T12:20:13.782Z,17.90
2018-06-13T12:21:16.812Z,17.90
2018-06-13T12:22:19.830Z,17.90
2018-06-13T12:23:22.837Z,17.90
2018-06-13T12:24:25.824Z,17.90
2018-06-13T12:25:28.823Z,17.90
2018-06-13T12:26:32.053Z,17.90
2018-06-13T12:27:35.166Z,17.90
2018-06-13T12:28:38.288Z,17.90
2018-06-13T12:29:41.404Z,18.00
2018-06-13T12:30:44.442Z,18.00
2018-06-13T12:31:47.478Z,18.00
2018-06-13T12:32:50.872Z,18.00
2018-06-13T12:33:54.393Z,18.10
2018-06-13T12:34:57.399Z,18.20
2018-06-13T12:36:00.627Z,18.20
2018-06-13T12:37:03.677Z,18.20
2018-06-13T12:38:06.688Z,18.30
2018-06-13T12:39:11.046Z,18.30
2018-06-13T12:40:14.105Z,18.30
2018-06-13T12:41:23.797Z,18.40
2018-06-13T12:42:26.870Z,18.40
2018-06-13T12:43:29.853Z,18.40
2018-06-13T12:44:32.879Z,18.40
2018-06-13T12:45:35.957Z,18.50
2018-06-13T12:46:38.931Z,18.60
2018-06-13T12:47:41.991Z,18.70
2018-06-13T12:48:45.041Z,18.80
2018-06-13T12:49:48.096Z,18.80
2018-06-13T12:50:51.236Z,18.80
2018-06-13T12:51:54.238Z,18.70
2018-06-13T12:52:57.447Z,18.70
2018-06-13T12:54:00.939Z,18.80
2018-06-13T12:55:03.981Z,18.80
2018-06-13T12:56:07.065Z,18.70
2018-06-13T12:57:10.106Z,18.70
2018-06-13T12:58:13.125Z,18.70
2018-06-13T12:59:16.289Z,18.70
2018-06-13T13:00:19.312Z,18.70
2018-06-13T13:01:22.331Z,18.70
2018-06-13T13:02:25.480Z,18.70
2018-06-13T13:03:28.611Z,18.70
2018-06-13T13:04:31.688Z,18.60
2018-06-13T13:05:34.645Z,18.60
2018-06-13T13:06:37.627Z,18.70
2018-06-13T13:07:40.629Z,18.70
2018-06-13T13:08:43.666Z,18.70
2018-06-13T13:09:46.744Z,18.70
2018-06-13T13:10:49.752Z,18.60
2018-06-13T13:11:52.758Z,18.60
2018-06-13T13:12:55.773Z,18.50
2018-06-13T13:13:58.921Z,18.40
2018-06-13T13:15:02.113Z,18.30
2018-06-13T13:16:05.428Z,18.20
2018-06-13T13:17:08.473Z,18.10
2018-06-13T13:18:11.494Z,18.00
2018-06-13T13:19:14.530Z,18.00
2018-06-13T13:20:17.571Z,17.90
2018-06-13T13:21:20.547Z,17.70
2018-06-13T13:22:23.575Z,17.70
2018-06-13T13:23:26.632Z,17.60
2018-06-13T13:24:29.688Z,17.60
2018-06-13T13:25:33.019Z,17.50
2018-06-13T13:26:36.040Z,17.50
2018-06-13T13:27:39.120Z,17.40
2018-06-13T13:28:42.124Z,17.40
2018-06-13T13:29:45.168Z,17.40
2018-06-13T13:30:48.499Z,17.40
2018-06-13T13:31:51.536Z,17.40
2018-06-13T13:32:54.516Z,17.40